Time;durP1;ratioP1;P1;durP2;ratioP2;P2;SDS_P1;SDS_P2;PMS_P1;PMS_P2;Temp;Humidity;BMP_temperature;BMP_pressure;BME280_temperature;BME280_humidity;BME280_pressure;Samples;Min_cycle;Max_cycle;Signal;HPM_P1;HPM_P2
2022/02/17 00:00:21;;;;;;;1.50;1.40;;;;;;;;;;5011790;28;20409;-44
2022/02/17 00:02:49;;;;;;;1.37;1.27;;;;;;;;;;5011902;28;20459;-44
2022/02/17 00:05:15;;;;;;;3.53;1.40;;;;;;;;;;5011938;28;20436;-44
2022/02/17 00:07:41;;;;;;;1.20;1.10;;;;;;;;;;5011160;28;20435;-44
2022/02/17 00:10:08;;;;;;;1.30;1.20;;;;;;;;;;5011348;28;20531;-44
2022/02/17 00:12:34;;;;;;;2.97;1.37;;;;;;;;;;5011324;28;20895;-44
2022/02/17 00:15:00;;;;;;;1.73;1.30;;;;;;;;;;5014765;28;20470;-45
2022/02/17 00:17:26;;;;;;;2.13;1.60;;;;;;;;;;5016219;28;20486;-44
2022/02/17 00:19:52;;;;;;;2.37;1.33;;;;;;;;;;5011487;28;20413;-45
2022/02/17 00:22:18;;;;;;;1.43;1.33;;;;;;;;;;5011642;28;20407;-43
2022/02/17 00:24:44;;;;;;;4.40;1.90;;;;;;;;;;5011704;28;20407;-44
2022/02/17 00:27:10;;;;;;;3.20;1.60;;;;;;;;;;5011620;28;20448;-44
2022/02/17 00:29:36;;;;;;;4.50;1.57;;;;;;;;;;5011393;28;20411;-44
2022/02/17 00:32:02;;;;;;;2.30;1.60;;;;;;;;;;5011470;28;20400;-44
2022/02/17 00:34:28;;;;;;;8.90;1.80;;;;;;;;;;5011280;28;21045;-44
2022/02/17 00:36:54;;;;;;;5.00;2.03;;;;;;;;;;5011328;28;20510;-44
2022/02/17 00:39:20;;;;;;;5.80;1.90;;;;;;;;;;5011204;28;20402;-44
2022/02/17 00:41:49;;;;;;;4.07;2.10;;;;;;;;;;5011490;28;20449;-44
2022/02/17 00:44:15;;;;;;;3.30;2.87;;;;;;;;;;5011502;28;20454;-44
2022/02/17 00:46:41;;;;;;;4.07;1.70;;;;;;;;;;5011291;28;20907;-44
2022/02/17 00:49:07;;;;;;;9.83;2.53;;;;;;;;;;5010909;28;20406;-44
2022/02/17 00:51:34;;;;;;;1.33;1.23;;;;;;;;;;5010675;28;20432;-44
2022/02/17 00:54:00;;;;;;;1.30;1.20;;;;;;;;;;5011255;28;21115;-45
2022/02/17 00:56:26;;;;;;;3.13;1.63;;;;;;;;;;5010872;28;20443;-44
2022/02/17 00:58:52;;;;;;;4.87;1.57;;;;;;;;;;5013906;28;20886;-45
2022/02/17 01:01:18;;;;;;;3.00;1.50;;;;;;;;;;5013490;28;20780;-45
2022/02/17 01:03:44;;;;;;;1.73;1.57;;;;;;;;;;5012835;28;20467;-45
2022/02/17 01:06:10;;;;;;;2.53;2.10;;;;;;;;;;5012799;28;20439;-45
2022/02/17 01:08:36;;;;;;;4.60;2.23;;;;;;;;;;5014216;28;20896;-44
2022/02/17 01:11:02;;;;;;;2.63;2.10;;;;;;;;;;5014129;28;20410;-45
2022/02/17 01:13:28;;;;;;;5.60;2.40;;;;;;;;;;5013749;28;20840;-45
2022/02/17 01:15:54;;;;;;;2.30;2.10;;;;;;;;;;5014328;28;20421;-45
2022/02/17 01:18:20;;;;;;;3.00;1.60;;;;;;;;;;5014806;28;20405;-45
2022/02/17 01:20:50;;;;;;;1.90;1.80;;;;;;;;;;5018234;28;20402;-45
2022/02/17 01:23:16;;;;;;;2.70;1.60;;;;;;;;;;5018009;28;20407;-44
2022/02/17 01:25:42;;;;;;;5.27;2.37;;;;;;;;;;5017043;28;20408;-45
2022/02/17 01:28:08;;;;;;;3.17;2.47;;;;;;;;;;5018341;28;20399;-45
2022/02/17 01:30:34;;;;;;;4.33;2.77;;;;;;;;;;5017368;28;20891;-44
2022/02/17 01:33:00;;;;;;;3.10;2.80;;;;;;;;;;5018206;28;20419;-46
2022/02/17 01:35:26;;;;;;;3.00;2.43;;;;;;;;;;5017885;28;20403;-46
2022/02/17 01:37:52;;;;;;;2.80;2.30;;;;;;;;;;5016946;28;20436;-45
2022/02/17 01:40:18;;;;;;;7.30;1.83;;;;;;;;;;5016386;28;20403;-45
2022/02/17 01:42:46;;;;;;;3.17;2.00;;;;;;;;;;5017675;28;20426;-45
2022/02/17 01:45:12;;;;;;;3.60;2.40;;;;;;;;;;5017370;28;20403;-45
2022/02/17 01:47:38;;;;;;;5.73;2.80;;;;;;;;;;5016403;28;20838;-45
2022/02/17 01:50:05;;;;;;;3.90;2.60;;;;;;;;;;5016712;28;20402;-45
2022/02/17 01:52:31;;;;;;;2.97;2.40;;;;;;;;;;5016574;28;20422;-45
2022/02/17 01:54:58;;;;;;;4.90;2.70;;;;;;;;;;5016251;28;20538;-45
2022/02/17 01:57:25;;;;;;;8.27;2.77;;;;;;;;;;5015301;28;20439;-45
2022/02/17 01:59:51;;;;;;;4.60;3.40;;;;;;;;;;5017013;28;20475;-45
2022/02/17 02:02:17;;;;;;;6.40;3.10;;;;;;;;;;5016161;28;20491;-45
2022/02/17 02:04:43;;;;;;;10.17;3.50;;;;;;;;;;5016061;28;20891;-45
2022/02/17 02:07:09;;;;;;;6.30;3.00;;;;;;;;;;5016437;28;21190;-45
2022/02/17 02:09:36;;;;;;;5.40;3.40;;;;;;;;;;5015139;28;20457;-45
2022/02/17 02:12:03;;;;;;;8.63;3.13;;;;;;;;;;5015531;28;20497;-45
2022/02/17 02:14:29;;;;;;;4.20;2.87;;;;;;;;;;5015902;28;20463;-45
2022/02/17 02:16:55;;;;;;;13.10;3.40;;;;;;;;;;5015416;28;20778;-45
2022/02/17 02:19:21;;;;;;;11.33;2.80;;;;;;;;;;5016299;28;20403;-45
2022/02/17 02:21:47;;;;;;;7.00;2.73;;;;;;;;;;5015997;28;20412;-45
2022/02/17 02:24:13;;;;;;;8.33;2.77;;;;;;;;;;5015645;28;20418;-44
2022/02/17 02:26:39;;;;;;;4.53;2.83;;;;;;;;;;5016161;28;20423;-45
2022/02/17 02:29:05;;;;;;;12.07;3.00;;;;;;;;;;5014968;28;20403;-45
2022/02/17 02:31:31;;;;;;;8.50;2.60;;;;;;;;;;5014519;28;20461;-45
2022/02/17 02:33:57;;;;;;;6.40;2.50;;;;;;;;;;5015310;28;20447;-45
2022/02/17 02:36:23;;;;;;;5.47;2.90;;;;;;;;;;5015670;28;20451;-45
2022/02/17 02:38:49;;;;;;;9.30;2.50;;;;;;;;;;5015332;28;20399;-43
2022/02/17 02:41:15;;;;;;;10.63;3.00;;;;;;;;;;5014746;28;20395;-45
2022/02/17 02:43:41;;;;;;;15.07;3.10;;;;;;;;;;5014847;28;20407;-44
2022/02/17 02:46:07;;;;;;;11.80;3.33;;;;;;;;;;5014554;28;20427;-45
2022/02/17 02:48:33;;;;;;;14.50;3.00;;;;;;;;;;5014471;28;20415;-45
2022/02/17 02:50:59;;;;;;;12.03;3.10;;;;;;;;;;5014674;28;20415;-45
2022/02/17 02:53:25;;;;;;;11.03;2.93;;;;;;;;;;5014618;28;20789;-45
2022/02/17 02:55:51;;;;;;;7.37;3.90;;;;;;;;;;5014274;28;20423;-45
2022/02/17 02:58:18;;;;;;;5.30;3.13;;;;;;;;;;5014807;28;20407;-45
2022/02/17 03:00:45;;;;;;;7.23;2.93;;;;;;;;;;5014290;28;20427;-44
2022/02/17 03:03:11;;;;;;;11.27;3.20;;;;;;;;;;5014473;28;20399;-45
2022/02/17 03:05:37;;;;;;;8.00;2.37;;;;;;;;;;5014730;28;20899;-45
2022/02/17 03:08:03;;;;;;;10.97;3.47;;;;;;;;;;5014195;28;20407;-46
2022/02/17 03:10:30;;;;;;;5.40;2.80;;;;;;;;;;5014163;28;20407;-45
2022/02/17 03:12:57;;;;;;;7.90;2.20;;;;;;;;;;5014759;28;20431;-45
2022/02/17 03:15:23;;;;;;;8.40;2.80;;;;;;;;;;5014700;28;20462;-45
2022/02/17 03:17:49;;;;;;;8.87;2.77;;;;;;;;;;5014647;28;20426;-45
2022/02/17 03:20:15;;;;;;;10.93;2.20;;;;;;;;;;5014200;28;20438;-45
2022/02/17 03:22:41;;;;;;;11.70;2.90;;;;;;;;;;5013797;28;20418;-45
2022/02/17 03:25:08;;;;;;;13.70;3.27;;;;;;;;;;5013218;28;20490;-45
2022/02/17 03:27:35;;;;;;;6.93;3.33;;;;;;;;;;5013830;28;20427;-45
2022/02/17 03:30:01;;;;;;;8.27;2.70;;;;;;;;;;5013862;28;20404;-45
2022/02/17 03:32:27;;;;;;;7.47;2.63;;;;;;;;;;5014016;28;20787;-45
2022/02/17 03:34:53;;;;;;;8.27;2.67;;;;;;;;;;5013850;28;20529;-45
2022/02/17 03:37:20;;;;;;;14.17;3.60;;;;;;;;;;5013959;28;20430;-45
2022/02/17 03:39:46;;;;;;;12.90;3.40;;;;;;;;;;5013923;28;20781;-45
2022/02/17 03:42:12;;;;;;;14.60;3.13;;;;;;;;;;5013089;28;20418;-45
2022/02/17 03:44:38;;;;;;;11.57;2.73;;;;;;;;;;5014202;28;20403;-45
2022/02/17 03:47:04;;;;;;;13.77;3.50;;;;;;;;;;5013716;28;20809;-45
2022/02/17 03:49:30;;;;;;;8.80;2.73;;;;;;;;;;5013323;28;20494;-45
2022/02/17 03:51:56;;;;;;;11.87;2.70;;;;;;;;;;5013483;28;20833;-45
2022/02/17 03:54:22;;;;;;;18.50;4.03;;;;;;;;;;5013471;28;20463;-46
2022/02/17 03:56:49;;;;;;;11.83;3.47;;;;;;;;;;5013136;28;20449;-45
2022/02/17 03:59:15;;;;;;;15.30;3.27;;;;;;;;;;5012969;28;20395;-45
2022/02/17 04:01:41;;;;;;;9.43;3.30;;;;;;;;;;5013105;28;20415;-45
2022/02/17 04:04:09;;;;;;;5.70;2.70;;;;;;;;;;5013748;28;20403;-45
2022/02/17 04:06:35;;;;;;;14.23;4.30;;;;;;;;;;5013011;28;20514;-45
2022/02/17 04:09:01;;;;;;;10.73;3.43;;;;;;;;;;5012531;28;20498;-45
2022/02/17 04:11:27;;;;;;;16.43;3.70;;;;;;;;;;5012546;28;20430;-45
2022/02/17 04:13:53;;;;;;;15.07;2.93;;;;;;;;;;5012464;28;20451;-45
2022/02/17 04:16:19;;;;;;;8.50;2.47;;;;;;;;;;5012811;28;20934;-45
2022/02/17 04:18:46;;;;;;;8.67;2.40;;;;;;;;;;5012393;28;20403;-45
2022/02/17 04:21:14;;;;;;;7.70;2.10;;;;;;;;;;5012454;28;20824;-45
2022/02/17 04:23:44;;;;;;;10.27;3.03;;;;;;;;;;5012370;28;20399;-45
2022/02/17 04:26:11;;;;;;;11.77;3.27;;;;;;;;;;5012659;28;20434;-45
2022/02/17 04:28:37;;;;;;;10.60;4.23;;;;;;;;;;5012670;28;20395;-45
2022/02/17 04:31:03;;;;;;;8.93;2.70;;;;;;;;;;5012264;28;20752;-45
2022/02/17 04:33:29;;;;;;;7.70;2.40;;;;;;;;;;5012240;28;20462;-45
2022/02/17 04:35:56;;;;;;;12.40;3.07;;;;;;;;;;5012431;28;20440;-45
2022/02/17 04:38:25;;;;;;;12.70;3.50;;;;;;;;;;5012945;28;20403;-45
2022/02/17 04:43:36;;;;;;;12.00;2.47;;;;;;;;;;5012744;28;20453;-46
2022/02/17 04:46:02;;;;;;;10.27;2.50;;;;;;;;;;5012991;28;20431;-45
2022/02/17 04:48:28;;;;;;;13.40;3.80;;;;;;;;;;5013079;28;20742;-45
2022/02/17 04:50:54;;;;;;;10.93;3.47;;;;;;;;;;5012616;28;20488;-45
2022/02/17 04:53:20;;;;;;;16.63;3.20;;;;;;;;;;5012292;28;20499;-45
2022/02/17 04:55:46;;;;;;;15.10;3.37;;;;;;;;;;5012422;28;20426;-46
2022/02/17 04:58:13;;;;;;;22.77;3.10;;;;;;;;;;5012801;28;20882;-45
2022/02/17 05:00:39;;;;;;;9.00;3.23;;;;;;;;;;5012695;28;20493;-45
2022/02/17 05:03:05;;;;;;;10.20;2.80;;;;;;;;;;5012891;28;20444;-45
2022/02/17 05:05:31;;;;;;;7.20;2.53;;;;;;;;;;5012909;28;20722;-45
2022/02/17 05:07:57;;;;;;;12.47;2.77;;;;;;;;;;5012779;28;20420;-45
2022/02/17 05:10:23;;;;;;;15.10;5.03;;;;;;;;;;5012264;28;20414;-45
2022/02/17 05:12:49;;;;;;;7.47;3.70;;;;;;;;;;5012839;28;20411;-45
2022/02/17 05:15:15;;;;;;;11.53;2.93;;;;;;;;;;5013162;28;20457;-45
2022/02/17 05:17:41;;;;;;;15.90;3.23;;;;;;;;;;5012921;28;20426;-45
2022/02/17 05:20:07;;;;;;;10.77;2.83;;;;;;;;;;5013419;28;20462;-45
2022/02/17 05:22:39;;;;;;;13.30;3.77;;;;;;;;;;5013410;28;20395;-45
2022/02/17 05:25:05;;;;;;;18.03;4.30;;;;;;;;;;5013733;28;20403;-45
2022/02/17 05:27:31;;;;;;;8.13;3.13;;;;;;;;;;5012981;28;20430;-45
2022/02/17 05:29:57;;;;;;;25.63;5.03;;;;;;;;;;5013118;28;20410;-45
2022/02/17 05:32:23;;;;;;;11.53;3.00;;;;;;;;;;5013344;28;20524;-45
2022/02/17 05:34:49;;;;;;;19.43;3.47;;;;;;;;;;5013031;28;20470;-45
2022/02/17 05:37:15;;;;;;;16.17;3.73;;;;;;;;;;5013289;28;20429;-45
2022/02/17 05:39:41;;;;;;;15.27;3.60;;;;;;;;;;5013446;28;20486;-45
2022/02/17 05:42:07;;;;;;;14.43;4.03;;;;;;;;;;5012625;28;20462;-45
2022/02/17 05:44:33;;;;;;;16.87;3.40;;;;;;;;;;5013395;28;20399;-45
2022/02/17 05:46:59;;;;;;;14.70;3.30;;;;;;;;;;5013694;28;20426;-45
2022/02/17 05:49:25;;;;;;;15.53;3.57;;;;;;;;;;5013804;28;20438;-45
2022/02/17 05:51:51;;;;;;;16.27;3.07;;;;;;;;;;5014302;28;20651;-45
2022/02/17 05:54:19;;;;;;;15.33;4.60;;;;;;;;;;5012211;28;20468;-45
2022/02/17 05:56:45;;;;;;;10.63;3.30;;;;;;;;;;5012964;28;20449;-45
2022/02/17 05:59:11;;;;;;;10.97;3.13;;;;;;;;;;5012771;28;20405;-45
2022/02/17 06:01:37;;;;;;;15.93;4.27;;;;;;;;;;5013369;28;20431;-45
2022/02/17 06:04:03;;;;;;;15.20;3.90;;;;;;;;;;5012986;28;20416;-44
2022/02/17 06:06:29;;;;;;;16.60;3.73;;;;;;;;;;5013526;28;20489;-46
2022/02/17 06:08:56;;;;;;;20.53;3.67;;;;;;;;;;5016332;28;20434;-45
2022/02/17 06:11:22;;;;;;;25.43;4.10;;;;;;;;;;5015200;28;20406;-45
2022/02/17 06:13:48;;;;;;;19.97;4.57;;;;;;;;;;5015825;28;20454;-45
2022/02/17 06:16:14;;;;;;;16.13;3.63;;;;;;;;;;5016096;28;20426;-45
2022/02/17 06:18:40;;;;;;;13.63;3.70;;;;;;;;;;5015945;28;20441;-45
2022/02/17 06:21:06;;;;;;;16.17;4.33;;;;;;;;;;5016217;28;20410;-45
2022/02/17 06:23:32;;;;;;;18.07;3.80;;;;;;;;;;5016459;28;20476;-45
2022/02/17 06:25:58;;;;;;;15.30;3.93;;;;;;;;;;5016091;28;20432;-45
2022/02/17 06:28:24;;;;;;;10.03;3.40;;;;;;;;;;5016655;28;20407;-45
2022/02/17 06:30:50;;;;;;;12.70;3.40;;;;;;;;;;5015704;28;20775;-45
2022/02/17 06:33:16;;;;;;;20.80;3.50;;;;;;;;;;5015937;28;20410;-45
2022/02/17 06:35:42;;;;;;;8.20;2.87;;;;;;;;;;5016089;28;20441;-45
2022/02/17 06:38:08;;;;;;;25.50;5.90;;;;;;;;;;5016001;28;20404;-45
2022/02/17 06:40:34;;;;;;;18.37;3.67;;;;;;;;;;5015884;28;20415;-45
2022/02/17 06:43:04;;;;;;;13.50;3.43;;;;;;;;;;5016003;28;20411;-45
2022/02/17 06:45:30;;;;;;;12.83;4.10;;;;;;;;;;5015959;28;20406;-45
2022/02/17 06:47:56;;;;;;;13.90;3.53;;;;;;;;;;5016166;28;20434;-45
2022/02/17 06:50:22;;;;;;;12.27;3.13;;;;;;;;;;5016179;28;20443;-45
2022/02/17 06:52:48;;;;;;;20.93;3.33;;;;;;;;;;5016425;28;20433;-45
2022/02/17 06:55:14;;;;;;;13.63;3.33;;;;;;;;;;5016866;28;20989;-45
2022/02/17 06:57:40;;;;;;;15.33;4.00;;;;;;;;;;5017340;28;20806;-45
2022/02/17 07:00:08;;;;;;;15.23;3.70;;;;;;;;;;5016105;28;20406;-45
2022/02/17 07:02:34;;;;;;;15.83;3.00;;;;;;;;;;5015854;28;20487;-45
2022/02/17 07:05:02;;;;;;;14.87;2.97;;;;;;;;;;5016041;28;20898;-45
2022/02/17 07:07:29;;;;;;;17.20;3.23;;;;;;;;;;5015856;28;20433;-45
2022/02/17 07:09:55;;;;;;;10.43;2.60;;;;;;;;;;5014148;28;20414;-45
2022/02/17 07:12:21;;;;;;;14.10;3.37;;;;;;;;;;5012869;28;20488;-45
2022/02/17 07:14:48;;;;;;;11.57;2.93;;;;;;;;;;5012743;28;20969;-44
2022/02/17 07:17:14;;;;;;;8.93;2.87;;;;;;;;;;5012625;28;20954;-45
2022/02/17 07:19:40;;;;;;;10.50;3.00;;;;;;;;;;5013005;28;20484;-45
2022/02/17 07:22:06;;;;;;;8.17;3.77;;;;;;;;;;5012686;28;20909;-44
2022/02/17 07:24:32;;;;;;;9.90;2.20;;;;;;;;;;5012840;28;20917;-44
2022/02/17 07:26:58;;;;;;;7.00;2.43;;;;;;;;;;5012685;28;20428;-44
2022/02/17 07:29:24;;;;;;;16.70;3.20;;;;;;;;;;5012593;28;20493;-44
2022/02/17 07:31:52;;;;;;;13.20;2.90;;;;;;;;;;5012617;28;20491;-44
2022/02/17 07:34:19;;;;;;;8.73;2.20;;;;;;;;;;5012639;28;20508;-45
2022/02/17 07:36:45;;;;;;;8.20;2.65;;;;;;;;;;5012774;28;20913;-44
2022/02/17 07:39:11;;;;;;;10.30;2.90;;;;;;;;;;5012370;28;20167;-44
2022/02/17 07:41:37;;;;;;;5.80;3.23;;;;;;;;;;5012506;28;20527;-45
2022/02/17 07:44:04;;;;;;;7.80;2.05;;;;;;;;;;5012344;28;20404;-44
2022/02/17 07:46:30;;;;;;;4.97;1.95;;;;;;;;;;5012388;28;20193;-44
2022/02/17 07:48:56;;;;;;;6.97;2.58;;;;;;;;;;5012132;28;20177;-44
2022/02/17 07:51:22;;;;;;;7.63;2.63;;;;;;;;;;5012284;28;20671;-45
2022/02/17 07:53:48;;;;;;;8.50;2.57;;;;;;;;;;5012132;28;20455;-44
2022/02/17 07:56:14;;;;;;;9.83;3.30;;;;;;;;;;5012115;28;20439;-44
2022/02/17 07:58:40;;;;;;;12.97;2.33;;;;;;;;;;5012303;28;20400;-44
2022/02/17 08:01:08;;;;;;;16.80;3.73;;;;;;;;;;5012105;28;20918;-44
2022/02/17 08:03:34;;;;;;;7.63;2.90;;;;;;;;;;5012191;28;20439;-44
2022/02/17 08:06:00;;;;;;;14.37;3.00;;;;;;;;;;5012287;28;20762;-44
2022/02/17 08:08:26;;;;;;;19.33;3.63;;;;;;;;;;5013138;28;20417;-44
2022/02/17 08:10:52;;;;;;;12.40;3.30;;;;;;;;;;5011407;28;20424;-43
2022/02/17 08:13:19;;;;;;;9.70;3.50;;;;;;;;;;5011620;28;20417;-44
2022/02/17 08:15:45;;;;;;;9.00;2.17;;;;;;;;;;5011779;28;20791;-45
2022/02/17 08:18:12;;;;;;;12.77;2.67;;;;;;;;;;5011783;28;20406;-44
2022/02/17 08:20:40;;;;;;;12.03;2.47;;;;;;;;;;5011243;28;20394;-44
2022/02/17 08:23:06;;;;;;;6.17;2.00;;;;;;;;;;5011549;28;20465;-44
2022/02/17 08:25:32;;;;;;;10.73;2.90;;;;;;;;;;5011201;28;20415;-44
2022/02/17 08:27:58;;;;;;;8.00;2.40;;;;;;;;;;5011435;28;21040;-44
2022/02/17 08:30:25;;;;;;;8.90;2.70;;;;;;;;;;5011050;28;20414;-44
2022/02/17 08:32:54;;;;;;;11.30;2.97;;;;;;;;;;5011471;28;20414;-44
2022/02/17 08:35:20;;;;;;;9.80;2.30;;;;;;;;;;5011412;28;20829;-44
2022/02/17 08:37:46;;;;;;;12.70;2.60;;;;;;;;;;5011359;28;20448;-44
2022/02/17 08:40:12;;;;;;;7.73;3.37;;;;;;;;;;5011064;28;20404;-44
2022/02/17 08:42:39;;;;;;;9.80;2.83;;;;;;;;;;5011316;28;20402;-44
2022/02/17 08:45:05;;;;;;;6.90;2.33;;;;;;;;;;5011346;28;20407;-44
2022/02/17 08:47:31;;;;;;;8.02;3.03;;;;;;;;;;5011409;28;20419;-43
2022/02/17 08:49:57;;;;;;;19.07;3.30;;;;;;;;;;5011089;28;20179;-44
2022/02/17 08:52:23;;;;;;;5.67;2.50;;;;;;;;;;5011132;28;20903;-43
2022/02/17 08:54:50;;;;;;;11.32;2.75;;;;;;;;;;5011331;28;20466;-44
2022/02/17 08:57:16;;;;;;;15.75;3.60;;;;;;;;;;5011055;28;20204;-43
2022/02/17 08:59:42;;;;;;;4.65;2.55;;;;;;;;;;5011058;28;20174;-44
2022/02/17 09:02:08;;;;;;;16.57;3.40;;;;;;;;;;5011487;28;20180;-44
2022/02/17 09:04:37;;;;;;;18.25;2.97;;;;;;;;;;5011391;28;20438;-43
2022/02/17 09:07:03;;;;;;;9.03;2.40;;;;;;;;;;5011173;28;20181;-44
2022/02/17 09:09:32;;;;;;;6.30;2.50;;;;;;;;;;5011216;28;20467;-44
2022/02/17 09:11:58;;;;;;;13.03;2.77;;;;;;;;;;5011151;28;20445;-44
2022/02/17 09:14:24;;;;;;;8.10;2.63;;;;;;;;;;5011129;28;20498;-44
2022/02/17 09:16:52;;;;;;;11.40;2.27;;;;;;;;;;5011033;28;20438;-44
2022/02/17 09:19:18;;;;;;;8.00;2.67;;;;;;;;;;5010957;28;20493;-44
2022/02/17 09:21:44;;;;;;;6.20;2.20;;;;;;;;;;5010741;28;20400;-44
2022/02/17 09:24:10;;;;;;;6.27;2.37;;;;;;;;;;5011010;28;20430;-44
2022/02/17 09:26:36;;;;;;;5.40;2.23;;;;;;;;;;5010666;28;20506;-44
2022/02/17 09:29:03;;;;;;;7.33;1.97;;;;;;;;;;5010731;28;20410;-44
2022/02/17 09:31:29;;;;;;;4.93;1.80;;;;;;;;;;5010766;28;20832;-43
2022/02/17 09:33:55;;;;;;;22.13;2.50;;;;;;;;;;5010749;28;20507;-44
2022/02/17 09:36:25;;;;;;;8.90;2.20;;;;;;;;;;5010583;28;20476;-44
2022/02/17 09:38:51;;;;;;;10.77;2.90;;;;;;;;;;5010707;28;20405;-44
2022/02/17 09:41:20;;;;;;;7.90;2.43;;;;;;;;;;5012578;28;20484;-44
2022/02/17 09:43:46;;;;;;;4.10;1.80;;;;;;;;;;5014474;28;20445;-44
2022/02/17 09:46:13;;;;;;;7.93;2.37;;;;;;;;;;5014435;28;20430;-44
2022/02/17 09:48:40;;;;;;;6.50;2.50;;;;;;;;;;5014240;28;20399;-44
2022/02/17 09:51:06;;;;;;;7.60;2.63;;;;;;;;;;5014197;28;20430;-44
2022/02/17 09:53:32;;;;;;;8.83;2.50;;;;;;;;;;5014414;28;20410;-44
2022/02/17 09:55:58;;;;;;;14.00;2.87;;;;;;;;;;5014323;28;20424;-44
2022/02/17 09:58:24;;;;;;;11.00;2.70;;;;;;;;;;5014435;28;20900;-45
2022/02/17 10:00:53;;;;;;;9.10;2.87;;;;;;;;;;5014085;28;20454;-44
2022/02/17 10:03:32;;;;;;;6.73;2.47;;;;;;;;;;5014423;28;20409;-45
2022/02/17 10:06:04;;;;;;;6.63;1.93;;;;;;;;;;5014133;28;20521;-45
2022/02/17 10:08:30;;;;;;;7.60;1.57;;;;;;;;;;5014138;28;20407;-44
2022/02/17 10:10:56;;;;;;;9.80;2.43;;;;;;;;;;5013900;28;20408;-45
2022/02/17 10:13:22;;;;;;;10.20;2.37;;;;;;;;;;5015242;28;20431;-45
2022/02/17 10:15:54;;;;;;;10.53;2.30;;;;;;;;;;5014437;28;20407;-45
2022/02/17 10:18:22;;;;;;;4.00;2.20;;;;;;;;;;5014274;28;20903;-45
2022/02/17 10:21:03;;;;;;;10.53;2.17;;;;;;;;;;5014552;28;20525;-46
2022/02/17 10:23:30;;;;;;;9.57;2.00;;;;;;;;;;5014988;28;20490;-45
2022/02/17 10:26:14;;;;;;;9.53;2.07;;;;;;;;;;5014399;28;20484;-45
2022/02/17 10:28:43;;;;;;;16.60;2.40;;;;;;;;;;5014081;28;20411;-45
2022/02/17 10:31:21;;;;;;;8.93;2.53;;;;;;;;;;5014036;28;20448;-45
2022/02/17 10:33:52;;;;;;;10.00;2.70;;;;;;;;;;5014104;28;20515;-45
2022/02/17 10:36:31;;;;;;;8.90;2.70;;;;;;;;;;5014383;28;20443;-45
2022/02/17 10:39:07;;;;;;;9.43;2.23;;;;;;;;;;5014327;28;20442;-45
2022/02/17 10:41:52;;;;;;;4.53;1.83;;;;;;;;;;5014939;28;20394;-45
2022/02/17 10:44:19;;;;;;;4.50;1.73;;;;;;;;;;5014480;28;20397;-45
2022/02/17 10:46:45;;;;;;;10.50;1.87;;;;;;;;;;5014174;28;20430;-45
2022/02/17 10:49:12;;;;;;;8.00;2.03;;;;;;;;;;5016540;28;20407;-45
2022/02/17 10:51:38;;;;;;;12.77;2.57;;;;;;;;;;5016277;28;20399;-45
2022/02/17 10:54:04;;;;;;;7.27;2.20;;;;;;;;;;5017137;28;20477;-45
2022/02/17 10:56:31;;;;;;;4.90;1.60;;;;;;;;;;5015884;28;20942;-45
2022/02/17 10:59:01;;;;;;;4.17;1.90;;;;;;;;;;5014513;28;20407;-45
2022/02/17 11:01:28;;;;;;;5.40;2.00;;;;;;;;;;5014900;28;20407;-45
2022/02/17 11:03:55;;;;;;;6.30;3.03;;;;;;;;;;5016072;28;20481;-45
2022/02/17 11:06:21;;;;;;;11.50;2.53;;;;;;;;;;5015426;28;20470;-45
2022/02/17 11:08:48;;;;;;;15.10;2.60;;;;;;;;;;5017861;28;20477;-46
2022/02/17 11:11:14;;;;;;;8.83;2.27;;;;;;;;;;5018117;28;20419;-45
2022/02/17 11:13:43;;;;;;;6.73;2.20;;;;;;;;;;5013506;28;20536;-45
2022/02/17 11:16:10;;;;;;;10.20;2.07;;;;;;;;;;5012674;28;20429;-45
2022/02/17 11:18:36;;;;;;;5.47;2.00;;;;;;;;;;5013057;28;20490;-45
2022/02/17 11:21:03;;;;;;;9.33;2.23;;;;;;;;;;5012563;28;20491;-46
2022/02/17 11:23:31;;;;;;;5.70;1.83;;;;;;;;;;5012649;28;20446;-46
2022/02/17 11:25:57;;;;;;;5.13;2.03;;;;;;;;;;5012682;28;20415;-45
2022/02/17 11:28:34;;;;;;;6.40;1.63;;;;;;;;;;5012740;28;20889;-45
2022/02/17 11:31:03;;;;;;;4.23;1.23;;;;;;;;;;5012297;28;20406;-44
2022/02/17 11:33:32;;;;;;;2.63;1.43;;;;;;;;;;5012398;28;20827;-45
2022/02/17 11:36:07;;;;;;;5.70;1.43;;;;;;;;;;5012669;28;20422;-45
2022/02/17 11:38:40;;;;;;;8.87;2.37;;;;;;;;;;5012479;28;20404;-45
2022/02/17 11:41:11;;;;;;;5.90;2.00;;;;;;;;;;5012098;28;20453;-45
2022/02/17 11:43:41;;;;;;;4.80;1.37;;;;;;;;;;5012520;28;20469;-45
2022/02/17 11:46:09;;;;;;;6.27;1.60;;;;;;;;;;5012437;28;20485;-44
2022/02/17 11:48:36;;;;;;;3.47;1.20;;;;;;;;;;5012089;28;20806;-45
2022/02/17 11:51:22;;;;;;;4.80;1.97;;;;;;;;;;5011655;28;20502;-45
2022/02/17 11:53:49;;;;;;;3.93;2.00;;;;;;;;;;5011992;28;20459;-44
2022/02/17 11:58:40;;;;;;;6.07;1.77;;;;;;;;;;5012326;28;20399;-44
2022/02/17 12:01:25;;;;;;;3.87;1.70;;;;;;;;;;5011923;28;20399;-44
2022/02/17 12:04:02;;;;;;;3.70;1.20;;;;;;;;;;4991625;28;20418;-45
2022/02/17 12:06:41;;;;;;;5.03;1.73;;;;;;;;;;4992427;28;20431;-45
2022/02/17 12:09:07;;;;;;;6.90;1.90;;;;;;;;;;4992238;28;20821;-45
2022/02/17 12:11:37;;;;;;;8.20;1.93;;;;;;;;;;4992442;28;20412;-44
2022/02/17 12:14:07;;;;;;;4.27;2.10;;;;;;;;;;4992055;28;20452;-45
2022/02/17 12:16:39;;;;;;;6.57;1.90;;;;;;;;;;4992659;28;20522;-44
2022/02/17 12:19:08;;;;;;;6.40;2.17;;;;;;;;;;4992018;28;20458;-45
2022/02/17 12:21:36;;;;;;;4.93;1.70;;;;;;;;;;4992164;28;20738;-44
2022/02/17 12:24:02;;;;;;;1.83;1.57;;;;;;;;;;4992077;28;20400;-44
2022/02/17 12:26:41;;;;;;;2.67;1.50;;;;;;;;;;4992083;28;20432;-46
2022/02/17 12:29:36;;;;;;;3.10;1.80;;;;;;;;;;4991851;28;20419;-45
2022/02/17 12:32:03;;;;;;;2.43;1.97;;;;;;;;;;4991838;28;20484;-45
2022/02/17 12:34:29;;;;;;;5.97;1.50;;;;;;;;;;4991687;28;20464;-45
2022/02/17 12:36:55;;;;;;;3.60;1.70;;;;;;;;;;4991688;28;20433;-45
2022/02/17 12:39:25;;;;;;;4.33;2.10;;;;;;;;;;4991496;28;20499;-46
2022/02/17 12:42:09;;;;;;;8.60;2.10;;;;;;;;;;4991961;28;20884;-46
2022/02/17 12:44:37;;;;;;;3.10;1.83;;;;;;;;;;4992518;28;20495;-46
2022/02/17 12:47:04;;;;;;;5.67;1.83;;;;;;;;;;4992652;28;20511;-46
2022/02/17 12:49:30;;;;;;;5.60;1.30;;;;;;;;;;4991974;28;20774;-45
2022/02/17 12:52:07;;;;;;;4.30;1.40;;;;;;;;;;4991852;28;20416;-46
2022/02/17 12:54:33;;;;;;;5.60;1.90;;;;;;;;;;4993139;28;20542;-46
2022/02/17 12:57:06;;;;;;;3.77;1.60;;;;;;;;;;4993021;28;20798;-45
2022/02/17 12:59:32;;;;;;;3.80;1.60;;;;;;;;;;4991435;28;20649;-45
2022/02/17 13:01:59;;;;;;;2.30;1.67;;;;;;;;;;4996848;28;20934;-45
2022/02/17 13:04:25;;;;;;;8.90;2.03;;;;;;;;;;5011131;28;21068;-47
2022/02/17 13:06:54;;;;;;;6.43;2.00;;;;;;;;;;5011060;28;20442;-46
2022/02/17 13:09:20;;;;;;;4.30;2.07;;;;;;;;;;5011024;28;20494;-46
2022/02/17 13:11:47;;;;;;;3.80;1.67;;;;;;;;;;5011079;28;20487;-48
2022/02/17 13:14:13;;;;;;;2.60;1.87;;;;;;;;;;5010961;28;20513;-45
2022/02/17 13:16:45;;;;;;;4.20;1.63;;;;;;;;;;5014613;28;20783;-44
2022/02/17 13:19:27;;;;;;;4.83;2.00;;;;;;;;;;5015103;28;20406;-46
2022/02/17 13:21:54;;;;;;;2.97;1.50;;;;;;;;;;5014830;28;20406;-45
2022/02/17 13:24:26;;;;;;;4.80;1.83;;;;;;;;;;5015095;28;20433;-45
2022/02/17 13:26:51;;;;;;;3.93;1.70;;;;;;;;;;5014853;28;20761;-45
2022/02/17 13:29:20;;;;;;;3.00;1.40;;;;;;;;;;5014618;28;20471;-45
2022/02/17 13:31:46;;;;;;;3.17;1.43;;;;;;;;;;5013480;28;20421;-46
2022/02/17 13:34:13;;;;;;;2.80;1.70;;;;;;;;;;5014896;28;20463;-45
2022/02/17 13:36:41;;;;;;;5.13;1.60;;;;;;;;;;5014290;28;20456;-45
2022/02/17 13:39:15;;;;;;;13.03;2.50;;;;;;;;;;5014415;28;20935;-45
2022/02/17 13:41:57;;;;;;;3.23;1.40;;;;;;;;;;5014617;28;20427;-46
2022/02/17 13:44:32;;;;;;;5.83;2.97;;;;;;;;;;5014635;28;20407;-46
2022/02/17 13:46:58;;;;;;;7.63;1.83;;;;;;;;;;5014198;28;20796;-44
2022/02/17 13:49:24;;;;;;;3.00;1.83;;;;;;;;;;5014233;28;20882;-44
2022/02/17 13:51:51;;;;;;;5.70;1.70;;;;;;;;;;5014405;28;20407;-45
2022/02/17 13:54:17;;;;;;;8.30;1.70;;;;;;;;;;5014316;28;20509;-44
2022/02/17 13:56:44;;;;;;;5.83;1.57;;;;;;;;;;5014132;28;20860;-44
2022/02/17 13:59:10;;;;;;;4.03;1.90;;;;;;;;;;5013995;28;20647;-44
2022/02/17 14:01:46;;;;;;;4.70;1.97;;;;;;;;;;5014072;28;20914;-44
2022/02/17 14:04:27;;;;;;;6.97;1.63;;;;;;;;;;5014463;28;20898;-44
2022/02/17 14:06:53;;;;;;;7.03;1.90;;;;;;;;;;5014255;28;20782;-47
2022/02/17 14:09:19;;;;;;;4.40;1.83;;;;;;;;;;5013927;28;20410;-44
2022/02/17 14:11:45;;;;;;;5.00;2.00;;;;;;;;;;5013919;28;20399;-46
2022/02/17 14:14:11;;;;;;;14.50;6.47;;;;;;;;;;5013777;28;20455;-44
2022/02/17 14:16:38;;;;;;;12.03;3.90;;;;;;;;;;5013950;28;20411;-45
2022/02/17 14:19:04;;;;;;;8.33;1.90;;;;;;;;;;5013721;28;20907;-45
2022/02/17 14:21:30;;;;;;;5.57;2.10;;;;;;;;;;5013698;28;20457;-45
2022/02/17 14:23:56;;;;;;;3.37;1.67;;;;;;;;;;5013823;28;20456;-44
2022/02/17 14:26:22;;;;;;;4.10;1.87;;;;;;;;;;5012694;28;21144;-45
2022/02/17 14:28:48;;;;;;;4.07;2.00;;;;;;;;;;5013779;28;20412;-45
2022/02/17 14:31:14;;;;;;;7.67;2.07;;;;;;;;;;5013689;28;20425;-45
2022/02/17 14:33:40;;;;;;;6.93;2.07;;;;;;;;;;5013469;28;20461;-45
2022/02/17 14:36:06;;;;;;;4.33;1.53;;;;;;;;;;5013560;28;20476;-45
2022/02/17 14:38:32;;;;;;;5.47;1.77;;;;;;;;;;5013531;28;20399;-46
2022/02/17 14:40:58;;;;;;;11.53;2.53;;;;;;;;;;5013347;28;20471;-45
2022/02/17 14:43:28;;;;;;;8.10;2.20;;;;;;;;;;5013432;28;20461;-44